sensor_id;sensor_type;location;lat;lon;timestamp;temperature;humidity
1137;DHT22;557;48.466;7.950;2023-02-01T00:01:59;5.00;99.90
1137;DHT22;557;48.466;7.950;2023-02-01T00:04:46;5.00;99.90
1137;DHT22;557;48.466;7.950;2023-02-01T00:07:33;5.00;99.90
1137;DHT22;557;48.466;7.950;2023-02-01T00:10:21;5.00;99.90
1137;DHT22;557;48.466;7.950;2023-02-01T00:13:09;5.00;99.90
1137;DHT22;557;48.466;7.950;2023-02-01T00:16:03;4.90;99.90
1137;DHT22;557;48.466;7.950;2023-02-01T00:18:52;4.90;99.90
1137;DHT22;557;48.466;7.950;2023-02-01T00:21:42;4.90;99.90
1137;DHT22;557;48.466;7.950;2023-02-01T00:24:31;4.90;99.90
1137;DHT22;557;48.466;7.950;2023-02-01T00:27:18;4.80;99.90
1137;DHT22;557;48.466;7.950;2023-02-01T00:30:10;4.80;99.90
1137;DHT22;557;48.466;7.950;2023-02-01T00:32:58;4.80;99.90
1137;DHT22;557;48.466;7.950;2023-02-01T00:35:46;4.80;99.90
1137;DHT22;557;48.466;7.950;2023-02-01T00:38:36;4.80;99.90
1137;DHT22;557;48.466;7.950;2023-02-01T00:41:25;4.80;99.90
1137;DHT22;557;48.466;7.950;2023-02-01T00:44:12;4.80;99.90
1137;DHT22;557;48.466;7.950;2023-02-01T00:47:01;4.80;99.90
1137;DHT22;557;48.466;7.950;2023-02-01T00:49:48;4.80;99.90
1137;DHT22;557;48.466;7.950;2023-02-01T00:52:36;4.80;99.90
1137;DHT22;557;48.466;7.950;2023-02-01T00:55:23;4.80;99.90
1137;DHT22;557;48.466;7.950;2023-02-01T00:58:10;4.80;99.90
1137;DHT22;557;48.466;7.950;2023-02-01T01:01:02;4.80;99.90
1137;DHT22;557;48.466;7.950;2023-02-01T01:03:53;4.80;99.90
1137;DHT22;557;48.466;7.950;2023-02-01T01:06:41;4.80;99.90
1137;DHT22;557;48.466;7.950;2023-02-01T01:09:29;4.80;99.90
1137;DHT22;557;48.466;7.950;2023-02-01T01:12:16;4.80;99.90
1137;DHT22;557;48.466;7.950;2023-02-01T01:15:07;4.90;99.90
1137;DHT22;557;48.466;7.950;2023-02-01T01:17:54;4.90;99.90
1137;DHT22;557;48.466;7.950;2023-02-01T01:20:43;4.90;99.90
1137;DHT22;557;48.466;7.950;2023-02-01T01:23:30;4.90;99.90
1137;DHT22;557;48.466;7.950;2023-02-01T01:26:19;4.90;99.90
1137;DHT22;557;48.466;7.950;2023-02-01T01:29:09;4.90;99.90
1137;DHT22;557;48.466;7.950;2023-02-01T01:31:56;5.00;98.10
1137;DHT22;557;48.466;7.950;2023-02-01T01:34:44;5.00;96.40
1137;DHT22;557;48.466;7.950;2023-02-01T01:37:33;5.00;94.40
1137;DHT22;557;48.466;7.950;2023-02-01T01:40:21;5.00;88.30
1137;DHT22;557;48.466;7.950;2023-02-01T01:43:13;5.00;85.50
1137;DHT22;557;48.466;7.950;2023-02-01T01:46:01;5.00;84.80
1137;DHT22;557;48.466;7.950;2023-02-01T01:48:51;5.00;89.60
1137;DHT22;557;48.466;7.950;2023-02-01T01:51:44;5.10;64.50
1137;DHT22;557;48.466;7.950;2023-02-01T01:54:38;5.10;64.40
1137;DHT22;557;48.466;7.950;2023-02-01T01:57:31;5.10;68.00
1137;DHT22;557;48.466;7.950;2023-02-01T02:00:20;5.10;57.90
1137;DHT22;557;48.466;7.950;2023-02-01T02:03:13;5.10;53.70
1137;DHT22;557;48.466;7.950;2023-02-01T02:06:03;5.10;56.80
1137;DHT22;557;48.466;7.950;2023-02-01T02:08:51;5.00;57.80
1137;DHT22;557;48.466;7.950;2023-02-01T02:11:40;5.10;44.10
1137;DHT22;557;48.466;7.950;2023-02-01T02:14:27;5.10;30.10
1137;DHT22;557;48.466;7.950;2023-02-01T02:17:29;5.10;45.30
1137;DHT22;557;48.466;7.950;2023-02-01T02:24:09;5.10;42.20
1137;DHT22;557;48.466;7.950;2023-02-01T02:27:12;5.10;47.20
1137;DHT22;557;48.466;7.950;2023-02-01T02:34:03;5.00;46.60
1137;DHT22;557;48.466;7.950;2023-02-01T02:37:02;5.00;45.70
1137;DHT22;557;48.466;7.950;2023-02-01T02:39:56;5.00;50.10
1137;DHT22;557;48.466;7.950;2023-02-01T02:42:50;5.00;51.60
1137;DHT22;557;48.466;7.950;2023-02-01T02:46:01;5.00;54.50
1137;DHT22;557;48.466;7.950;2023-02-01T02:49:12;5.00;33.00
1137;DHT22;557;48.466;7.950;2023-02-01T02:52:06;5.00;45.50
1137;DHT22;557;48.466;7.950;2023-02-01T02:55:16;5.00;36.20
1137;DHT22;557;48.466;7.950;2023-02-01T02:58:05;5.00;42.80
1137;DHT22;557;48.466;7.950;2023-02-01T03:01:11;5.00;42.50
1137;DHT22;557;48.466;7.950;2023-02-01T03:04:18;4.90;39.10
1137;DHT22;557;48.466;7.950;2023-02-01T03:07:12;4.90;40.10
1137;DHT22;557;48.466;7.950;2023-02-01T03:10:01;4.80;97.00
1137;DHT22;557;48.466;7.950;2023-02-01T03:12:52;4.80;99.90
1137;DHT22;557;48.466;7.950;2023-02-01T03:15:48;4.70;99.90
1137;DHT22;557;48.466;7.950;2023-02-01T03:18:42;4.70;99.90
1137;DHT22;557;48.466;7.950;2023-02-01T03:21:37;4.70;99.90
1137;DHT22;557;48.466;7.950;2023-02-01T03:24:29;4.70;99.90
1137;DHT22;557;48.466;7.950;2023-02-01T03:27:23;4.70;99.90
1137;DHT22;557;48.466;7.950;2023-02-01T03:30:17;4.70;90.80
1137;DHT22;557;48.466;7.950;2023-02-01T03:33:09;4.70;87.90
1137;DHT22;557;48.466;7.950;2023-02-01T03:36:05;4.70;72.40
1137;DHT22;557;48.466;7.950;2023-02-01T03:39:02;4.70;63.20
1137;DHT22;557;48.466;7.950;2023-02-01T03:41:53;4.80;64.50
1137;DHT22;557;48.466;7.950;2023-02-01T03:44:44;4.70;63.00
1137;DHT22;557;48.466;7.950;2023-02-01T03:47:36;4.70;69.30
1137;DHT22;557;48.466;7.950;2023-02-01T03:50:26;4.70;52.80
1137;DHT22;557;48.466;7.950;2023-02-01T03:53:16;4.70;32.10
1137;DHT22;557;48.466;7.950;2023-02-01T03:56:06;4.70;42.20
1137;DHT22;557;48.466;7.950;2023-02-01T03:58:55;4.80;41.40
1137;DHT22;557;48.466;7.950;2023-02-01T04:01:45;4.80;33.80
1137;DHT22;557;48.466;7.950;2023-02-01T04:04:34;4.80;15.60
1137;DHT22;557;48.466;7.950;2023-02-01T04:07:21;4.80;9.30
1137;DHT22;557;48.466;7.950;2023-02-01T04:10:09;4.90;1.00
1137;DHT22;557;48.466;7.950;2023-02-01T04:12:59;4.90;1.00
1137;DHT22;557;48.466;7.950;2023-02-01T04:15:47;4.90;1.00
1137;DHT22;557;48.466;7.950;2023-02-01T04:18:35;4.90;1.00
1137;DHT22;557;48.466;7.950;2023-02-01T04:21:23;5.00;1.00
1137;DHT22;557;48.466;7.950;2023-02-01T04:24:10;5.10;1.00
1137;DHT22;557;48.466;7.950;2023-02-01T04:26:57;5.10;1.00
1137;DHT22;557;48.466;7.950;2023-02-01T04:29:47;5.10;1.00
1137;DHT22;557;48.466;7.950;2023-02-01T04:32:35;5.10;1.00
1137;DHT22;557;48.466;7.950;2023-02-01T04:35:23;5.10;1.00
1137;DHT22;557;48.466;7.950;2023-02-01T04:38:10;5.20;1.00
1137;DHT22;557;48.466;7.950;2023-02-01T04:40:58;5.20;1.00
1137;DHT22;557;48.466;7.950;2023-02-01T04:43:45;5.20;1.00
1137;DHT22;557;48.466;7.950;2023-02-01T04:46:34;5.20;1.00
1137;DHT22;557;48.466;7.950;2023-02-01T04:49:21;5.20;1.00
1137;DHT22;557;48.466;7.950;2023-02-01T04:52:09;5.20;1.00
1137;DHT22;557;48.466;7.950;2023-02-01T04:54:56;5.20;1.00
1137;DHT22;557;48.466;7.950;2023-02-01T04:57:45;5.20;1.00
1137;DHT22;557;48.466;7.950;2023-02-01T05:00:33;5.30;1.00
1137;DHT22;557;48.466;7.950;2023-02-01T05:03:22;5.30;1.00
1137;DHT22;557;48.466;7.950;2023-02-01T05:06:09;5.30;1.00
1137;DHT22;557;48.466;7.950;2023-02-01T05:08:57;5.30;1.00
1137;DHT22;557;48.466;7.950;2023-02-01T05:11:45;5.30;1.00
1137;DHT22;557;48.466;7.950;2023-02-01T05:14:50;5.30;1.00
1137;DHT22;557;48.466;7.950;2023-02-01T05:17:37;5.20;1.00
1137;DHT22;557;48.466;7.950;2023-02-01T05:20:27;5.30;1.00
1137;DHT22;557;48.466;7.950;2023-02-01T05:23:14;5.30;1.00
1137;DHT22;557;48.466;7.950;2023-02-01T05:26:01;5.30;1.00
1137;DHT22;557;48.466;7.950;2023-02-01T05:28:49;5.30;1.00
1137;DHT22;557;48.466;7.950;2023-02-01T05:31:36;5.30;1.00
1137;DHT22;557;48.466;7.950;2023-02-01T05:34:24;5.30;1.00
1137;DHT22;557;48.466;7.950;2023-02-01T05:37:13;5.30;1.00
1137;DHT22;557;48.466;7.950;2023-02-01T05:40:00;5.30;1.00
1137;DHT22;557;48.466;7.950;2023-02-01T05:42:47;5.30;1.00
1137;DHT22;557;48.466;7.950;2023-02-01T05:45:35;5.30;1.00
1137;DHT22;557;48.466;7.950;2023-02-01T05:48:22;5.30;1.00
1137;DHT22;557;48.466;7.950;2023-02-01T05:51:10;5.30;1.00
1137;DHT22;557;48.466;7.950;2023-02-01T05:53:59;5.20;1.00
1137;DHT22;557;48.466;7.950;2023-02-01T05:56:46;5.20;1.00
1137;DHT22;557;48.466;7.950;2023-02-01T05:59:34;5.10;1.00
1137;DHT22;557;48.466;7.950;2023-02-01T06:02:26;5.10;1.00
1137;DHT22;557;48.466;7.950;2023-02-01T06:05:14;5.00;1.00
1137;DHT22;557;48.466;7.950;2023-02-01T06:08:01;5.00;1.00
1137;DHT22;557;48.466;7.950;2023-02-01T06:10:50;4.90;1.00
1137;DHT22;557;48.466;7.950;2023-02-01T06:13:37;4.90;1.00
1137;DHT22;557;48.466;7.950;2023-02-01T06:16:25;4.90;1.00
1137;DHT22;557;48.466;7.950;2023-02-01T06:19:13;4.90;5.00
1137;DHT22;557;48.466;7.950;2023-02-01T06:22:00;4.80;1.00
1137;DHT22;557;48.466;7.950;2023-02-01T06:24:51;4.80;7.70
1137;DHT22;557;48.466;7.950;2023-02-01T06:27:40;4.80;8.20
1137;DHT22;557;48.466;7.950;2023-02-01T06:30:28;4.90;1.00
1137;DHT22;557;48.466;7.950;2023-02-01T06:33:15;4.90;10.50
1137;DHT22;557;48.466;7.950;2023-02-01T06:36:05;4.90;8.50
1137;DHT22;557;48.466;7.950;2023-02-01T06:38:53;4.90;41.50
1137;DHT22;557;48.466;7.950;2023-02-01T06:41:42;4.70;99.90
1137;DHT22;557;48.466;7.950;2023-02-01T06:44:31;4.60;99.90
1137;DHT22;557;48.466;7.950;2023-02-01T06:47:18;4.50;99.90
1137;DHT22;557;48.466;7.950;2023-02-01T06:50:07;4.40;99.90
1137;DHT22;557;48.466;7.950;2023-02-01T06:52:55;4.40;99.90
1137;DHT22;557;48.466;7.950;2023-02-01T06:55:51;4.40;99.90
1137;DHT22;557;48.466;7.950;2023-02-01T06:58:39;4.40;99.90
1137;DHT22;557;48.466;7.950;2023-02-01T07:01:27;4.40;99.90
1137;DHT22;557;48.466;7.950;2023-02-01T07:04:15;4.40;99.90
1137;DHT22;557;48.466;7.950;2023-02-01T07:07:02;4.30;99.90
1137;DHT22;557;48.466;7.950;2023-02-01T07:09:49;4.30;99.90
1137;DHT22;557;48.466;7.950;2023-02-01T07:12:40;4.30;99.90
1137;DHT22;557;48.466;7.950;2023-02-01T07:15:27;4.20;99.90
1137;DHT22;557;48.466;7.950;2023-02-01T07:18:16;4.30;99.90
1137;DHT22;557;48.466;7.950;2023-02-01T07:21:03;4.30;99.90
1137;DHT22;557;48.466;7.950;2023-02-01T07:23:50;4.30;99.90
1137;DHT22;557;48.466;7.950;2023-02-01T07:26:38;4.40;99.90
1137;DHT22;557;48.466;7.950;2023-02-01T07:29:25;4.40;99.90
1137;DHT22;557;48.466;7.950;2023-02-01T07:32:12;4.40;99.90
1137;DHT22;557;48.466;7.950;2023-02-01T07:35:05;4.40;99.90
1137;DHT22;557;48.466;7.950;2023-02-01T07:37:53;4.40;99.90
1137;DHT22;557;48.466;7.950;2023-02-01T07:40:41;4.50;99.90
1137;DHT22;557;48.466;7.950;2023-02-01T07:43:29;4.40;99.90
1137;DHT22;557;48.466;7.950;2023-02-01T07:46:16;4.50;99.90
1137;DHT22;557;48.466;7.950;2023-02-01T07:49:03;4.40;99.90
1137;DHT22;557;48.466;7.950;2023-02-01T07:51:52;4.50;99.90
1137;DHT22;557;48.466;7.950;2023-02-01T07:54:39;4.50;99.90
1137;DHT22;557;48.466;7.950;2023-02-01T07:57:27;4.50;99.90
1137;DHT22;557;48.466;7.950;2023-02-01T08:00:15;4.60;99.90
1137;DHT22;557;48.466;7.950;2023-02-01T08:03:19;4.50;99.90
1137;DHT22;557;48.466;7.950;2023-02-01T08:06:07;4.60;99.90
1137;DHT22;557;48.466;7.950;2023-02-01T08:08:56;4.70;99.90
1137;DHT22;557;48.466;7.950;2023-02-01T08:11:43;4.60;99.90
1137;DHT22;557;48.466;7.950;2023-02-01T08:14:30;4.60;99.90
1137;DHT22;557;48.466;7.950;2023-02-01T08:17:18;4.60;99.90
1137;DHT22;557;48.466;7.950;2023-02-01T08:20:06;4.60;99.90
1137;DHT22;557;48.466;7.950;2023-02-01T08:22:54;4.70;99.90
1137;DHT22;557;48.466;7.950;2023-02-01T08:25:43;4.70;96.40
1137;DHT22;557;48.466;7.950;2023-02-01T08:28:30;4.80;90.20
1137;DHT22;557;48.466;7.950;2023-02-01T08:31:20;4.80;79.50
1137;DHT22;557;48.466;7.950;2023-02-01T08:34:09;4.90;81.10
1137;DHT22;557;48.466;7.950;2023-02-01T08:36:58;4.90;55.10
1137;DHT22;557;48.466;7.950;2023-02-01T08:39:45;5.00;24.00
1137;DHT22;557;48.466;7.950;2023-02-01T08:42:37;5.10;36.60
1137;DHT22;557;48.466;7.950;2023-02-01T08:45:40;5.20;14.70
1137;DHT22;557;48.466;7.950;2023-02-01T08:48:30;5.30;13.60
1137;DHT22;557;48.466;7.950;2023-02-01T08:51:20;5.30;2.90
1137;DHT22;557;48.466;7.950;2023-02-01T08:54:08;5.30;24.20
1137;DHT22;557;48.466;7.950;2023-02-01T08:56:55;5.30;9.80
1137;DHT22;557;48.466;7.950;2023-02-01T08:59:44;5.20;25.70
1137;DHT22;557;48.466;7.950;2023-02-01T09:02:31;5.30;3.50
1137;DHT22;557;48.466;7.950;2023-02-01T09:05:18;5.30;10.60
1137;DHT22;557;48.466;7.950;2023-02-01T09:08:08;5.30;7.00
1137;DHT22;557;48.466;7.950;2023-02-01T09:10:58;5.30;6.20
1137;DHT22;557;48.466;7.950;2023-02-01T09:13:47;5.30;12.90
1137;DHT22;557;48.466;7.950;2023-02-01T09:16:35;5.40;2.10
1137;DHT22;557;48.466;7.950;2023-02-01T09:19:23;5.40;1.00
1137;DHT22;557;48.466;7.950;2023-02-01T09:22:10;5.40;1.00
1137;DHT22;557;48.466;7.950;2023-02-01T09:24:57;5.50;1.00
1137;DHT22;557;48.466;7.950;2023-02-01T09:27:45;5.50;1.00
1137;DHT22;557;48.466;7.950;2023-02-01T09:30:33;5.50;1.00
1137;DHT22;557;48.466;7.950;2023-02-01T09:33:22;5.50;1.00
1137;DHT22;557;48.466;7.950;2023-02-01T09:36:10;5.50;1.00
1137;DHT22;557;48.466;7.950;2023-02-01T09:38:58;5.50;1.00
1137;DHT22;557;48.466;7.950;2023-02-01T09:41:52;5.50;9.50
1137;DHT22;557;48.466;7.950;2023-02-01T09:44:52;5.50;7.00
1137;DHT22;557;48.466;7.950;2023-02-01T09:47:46;5.50;20.00
1137;DHT22;557;48.466;7.950;2023-02-01T09:50:38;5.50;18.90
1137;DHT22;557;48.466;7.950;2023-02-01T09:53:29;5.50;16.50
1137;DHT22;557;48.466;7.950;2023-02-01T09:56:22;5.60;11.20
1137;DHT22;557;48.466;7.950;2023-02-01T09:59:22;5.60;14.70
1137;DHT22;557;48.466;7.950;2023-02-01T10:02:13;5.60;10.50
1137;DHT22;557;48.466;7.950;2023-02-01T10:05:02;5.60;10.70
1137;DHT22;557;48.466;7.950;2023-02-01T10:08:01;5.60;13.90
1137;DHT22;557;48.466;7.950;2023-02-01T10:10:53;5.60;16.20
1137;DHT22;557;48.466;7.950;2023-02-01T10:13:51;5.70;12.90
1137;DHT22;557;48.466;7.950;2023-02-01T10:16:48;5.70;24.60
1137;DHT22;557;48.466;7.950;2023-02-01T10:19:45;5.70;31.50
1137;DHT22;557;48.466;7.950;2023-02-01T10:22:40;5.80;27.90
1137;DHT22;557;48.466;7.950;2023-02-01T10:25:32;5.80;37.70
1137;DHT22;557;48.466;7.950;2023-02-01T10:28:24;5.90;9.60
1137;DHT22;557;48.466;7.950;2023-02-01T10:31:12;6.00;1.20
1137;DHT22;557;48.466;7.950;2023-02-01T10:34:01;6.00;2.80
1137;DHT22;557;48.466;7.950;2023-02-01T10:36:56;6.20;1.00
1137;DHT22;557;48.466;7.950;2023-02-01T10:39:44;6.20;1.00
1137;DHT22;557;48.466;7.950;2023-02-01T10:42:33;6.20;1.00
1137;DHT22;557;48.466;7.950;2023-02-01T10:45:22;6.20;1.00
1137;DHT22;557;48.466;7.950;2023-02-01T10:48:11;6.30;1.00
1137;DHT22;557;48.466;7.950;2023-02-01T10:51:00;6.20;1.00
1137;DHT22;557;48.466;7.950;2023-02-01T10:53:53;6.20;1.00
1137;DHT22;557;48.466;7.950;2023-02-01T10:56:43;6.20;1.00
1137;DHT22;557;48.466;7.950;2023-02-01T10:59:32;6.20;1.00
1137;DHT22;557;48.466;7.950;2023-02-01T11:02:26;6.20;1.00
1137;DHT22;557;48.466;7.950;2023-02-01T11:05:16;6.20;1.00
1137;DHT22;557;48.466;7.950;2023-02-01T11:08:04;6.20;1.00
1137;DHT22;557;48.466;7.950;2023-02-01T11:10:58;6.20;1.00
1137;DHT22;557;48.466;7.950;2023-02-01T11:13:53;6.20;1.00
1137;DHT22;557;48.466;7.950;2023-02-01T11:16:47;6.20;1.00
1137;DHT22;557;48.466;7.950;2023-02-01T11:19:35;6.20;1.00
1137;DHT22;557;48.466;7.950;2023-02-01T11:22:46;6.20;1.00
1137;DHT22;557;48.466;7.950;2023-02-01T11:25:36;6.20;1.00
1137;DHT22;557;48.466;7.950;2023-02-01T11:28:26;6.20;1.00
1137;DHT22;557;48.466;7.950;2023-02-01T11:31:14;6.20;1.00
1137;DHT22;557;48.466;7.950;2023-02-01T11:34:08;6.20;1.00
1137;DHT22;557;48.466;7.950;2023-02-01T11:37:00;6.30;1.00
1137;DHT22;557;48.466;7.950;2023-02-01T11:39:56;6.20;1.00
1137;DHT22;557;48.466;7.950;2023-02-01T11:42:53;6.20;1.00
1137;DHT22;557;48.466;7.950;2023-02-01T11:45:41;6.20;1.00
1137;DHT22;557;48.466;7.950;2023-02-01T11:48:40;6.20;1.00
1137;DHT22;557;48.466;7.950;2023-02-01T11:51:38;6.20;1.00
1137;DHT22;557;48.466;7.950;2023-02-01T11:54:46;6.20;1.00
1137;DHT22;557;48.466;7.950;2023-02-01T11:57:51;6.30;1.00
1137;DHT22;557;48.466;7.950;2023-02-01T12:00:52;6.30;1.00
1137;DHT22;557;48.466;7.950;2023-02-01T12:04:06;6.30;1.00
1137;DHT22;557;48.466;7.950;2023-02-01T12:07:00;6.40;1.00
1137;DHT22;557;48.466;7.950;2023-02-01T12:10:01;6.40;1.00
1137;DHT22;557;48.466;7.950;2023-02-01T12:13:00;6.40;1.00
1137;DHT22;557;48.466;7.950;2023-02-01T12:16:00;6.40;1.00
1137;DHT22;557;48.466;7.950;2023-02-01T12:19:11;6.40;1.00
1137;DHT22;557;48.466;7.950;2023-02-01T12:22:23;6.50;1.00
1137;DHT22;557;48.466;7.950;2023-02-01T12:25:22;6.60;1.00
1137;DHT22;557;48.466;7.950;2023-02-01T12:31:53;6.60;1.00
1137;DHT22;557;48.466;7.950;2023-02-01T12:35:04;6.60;1.00
1137;DHT22;557;48.466;7.950;2023-02-01T12:38:10;6.50;1.00
1137;DHT22;557;48.466;7.950;2023-02-01T12:41:21;6.50;1.00
1137;DHT22;557;48.466;7.950;2023-02-01T12:44:17;6.50;1.00
1137;DHT22;557;48.466;7.950;2023-02-01T12:47:11;6.50;99.90
1137;DHT22;557;48.466;7.950;2023-02-01T12:50:02;6.60;1.00
1137;DHT22;557;48.466;7.950;2023-02-01T12:52:52;6.60;1.00
1137;DHT22;557;48.466;7.950;2023-02-01T12:55:43;6.60;1.00
1137;DHT22;557;48.466;7.950;2023-02-01T12:58:40;6.60;1.00
1137;DHT22;557;48.466;7.950;2023-02-01T13:01:31;6.50;1.00
1137;DHT22;557;48.466;7.950;2023-02-01T13:04:26;6.60;1.00
1137;DHT22;557;48.466;7.950;2023-02-01T13:07:18;6.60;99.90
1137;DHT22;557;48.466;7.950;2023-02-01T13:10:13;6.60;99.90
1137;DHT22;557;48.466;7.950;2023-02-01T13:13:12;6.70;99.90
1137;DHT22;557;48.466;7.950;2023-02-01T13:16:05;6.70;1.00
1137;DHT22;557;48.466;7.950;2023-02-01T13:18:57;6.70;1.00
1137;DHT22;557;48.466;7.950;2023-02-01T13:21:50;6.70;1.00
1137;DHT22;557;48.466;7.950;2023-02-01T13:24:42;6.70;99.90
1137;DHT22;557;48.466;7.950;2023-02-01T13:27:32;6.80;1.00
1137;DHT22;557;48.466;7.950;2023-02-01T13:30:24;6.70;1.00
1137;DHT22;557;48.466;7.950;2023-02-01T13:33:25;6.80;1.00
1137;DHT22;557;48.466;7.950;2023-02-01T13:36:43;6.80;99.90
1137;DHT22;557;48.466;7.950;2023-02-01T13:39:48;6.80;1.00
1137;DHT22;557;48.466;7.950;2023-02-01T13:42:45;6.80;1.00
1137;DHT22;557;48.466;7.950;2023-02-01T13:45:41;6.80;99.90
1137;DHT22;557;48.466;7.950;2023-02-01T13:48:33;6.90;1.00
1137;DHT22;557;48.466;7.950;2023-02-01T13:51:40;6.90;99.90
1137;DHT22;557;48.466;7.950;2023-02-01T13:54:30;6.90;1.00
1137;DHT22;557;48.466;7.950;2023-02-01T13:57:35;6.90;99.90
1137;DHT22;557;48.466;7.950;2023-02-01T14:00:25;6.90;99.90
1137;DHT22;557;48.466;7.950;2023-02-01T14:03:20;6.90;99.90
1137;DHT22;557;48.466;7.950;2023-02-01T14:06:38;6.90;99.90
1137;DHT22;557;48.466;7.950;2023-02-01T14:09:33;6.80;99.90
1137;DHT22;557;48.466;7.950;2023-02-01T14:12:43;6.80;1.00
1137;DHT22;557;48.466;7.950;2023-02-01T14:15:30;6.70;23.90
1137;DHT22;557;48.466;7.950;2023-02-01T14:18:56;6.60;99.90
1137;DHT22;557;48.466;7.950;2023-02-01T14:21:48;6.60;1.00
1137;DHT22;557;48.466;7.950;2023-02-01T14:24:40;6.70;17.30
1137;DHT22;557;48.466;7.950;2023-02-01T14:27:30;6.80;1.00
1137;DHT22;557;48.466;7.950;2023-02-01T14:30:23;6.80;99.90
1137;DHT22;557;48.466;7.950;2023-02-01T14:33:20;6.80;99.90
1137;DHT22;557;48.466;7.950;2023-02-01T14:36:13;6.90;99.90
1137;DHT22;557;48.466;7.950;2023-02-01T14:39:01;6.90;99.90
1137;DHT22;557;48.466;7.950;2023-02-01T14:41:54;6.90;99.90
1137;DHT22;557;48.466;7.950;2023-02-01T14:44:42;6.90;62.70
1137;DHT22;557;48.466;7.950;2023-02-01T14:47:32;7.00;21.50
1137;DHT22;557;48.466;7.950;2023-02-01T14:50:33;7.00;9.80
1137;DHT22;557;48.466;7.950;2023-02-01T14:53:28;7.00;2.50
1137;DHT22;557;48.466;7.950;2023-02-01T14:56:19;7.00;1.00
1137;DHT22;557;48.466;7.950;2023-02-01T14:59:12;7.00;1.00
1137;DHT22;557;48.466;7.950;2023-02-01T15:02:02;7.00;1.00
1137;DHT22;557;48.466;7.950;2023-02-01T15:05:28;7.00;1.00
1137;DHT22;557;48.466;7.950;2023-02-01T15:08:25;7.00;1.00
1137;DHT22;557;48.466;7.950;2023-02-01T15:11:15;7.00;15.20
1137;DHT22;557;48.466;7.950;2023-02-01T15:14:11;7.00;39.60
1137;DHT22;557;48.466;7.950;2023-02-01T15:17:00;6.90;99.90
1137;DHT22;557;48.466;7.950;2023-02-01T15:19:55;6.80;1.00
1137;DHT22;557;48.466;7.950;2023-02-01T15:22:52;6.70;75.70
1137;DHT22;557;48.466;7.950;2023-02-01T15:25:44;6.60;1.00
1137;DHT22;557;48.466;7.950;2023-02-01T15:28:32;6.50;99.90
1137;DHT22;557;48.466;7.950;2023-02-01T15:31:32;6.50;99.90
1137;DHT22;557;48.466;7.950;2023-02-01T15:34:20;6.50;11.80
1137;DHT22;557;48.466;7.950;2023-02-01T15:37:11;6.50;99.90
1137;DHT22;557;48.466;7.950;2023-02-01T15:40:03;6.50;99.90
1137;DHT22;557;48.466;7.950;2023-02-01T15:42:55;6.50;11.50
1137;DHT22;557;48.466;7.950;2023-02-01T15:45:42;6.60;99.90
1137;DHT22;557;48.466;7.950;2023-02-01T15:48:34;6.60;1.00
1137;DHT22;557;48.466;7.950;2023-02-01T15:51:25;6.70;1.00
1137;DHT22;557;48.466;7.950;2023-02-01T15:54:17;6.70;1.00
1137;DHT22;557;48.466;7.950;2023-02-01T15:57:06;6.70;1.00
1137;DHT22;557;48.466;7.950;2023-02-01T15:59:55;6.60;99.90
1137;DHT22;557;48.466;7.950;2023-02-01T16:02:52;6.60;99.90
1137;DHT22;557;48.466;7.950;2023-02-01T16:05:42;6.60;1.00
1137;DHT22;557;48.466;7.950;2023-02-01T16:08:31;6.70;1.00
1137;DHT22;557;48.466;7.950;2023-02-01T16:11:23;6.70;1.00
1137;DHT22;557;48.466;7.950;2023-02-01T16:14:13;6.70;1.00
1137;DHT22;557;48.466;7.950;2023-02-01T16:17:02;6.70;99.90
1137;DHT22;557;48.466;7.950;2023-02-01T16:19:50;6.80;99.90
1137;DHT22;557;48.466;7.950;2023-02-01T16:22:37;6.80;99.90
1137;DHT22;557;48.466;7.950;2023-02-01T16:25:25;6.80;99.90
1137;DHT22;557;48.466;7.950;2023-02-01T16:28:12;6.80;99.90
1137;DHT22;557;48.466;7.950;2023-02-01T16:31:00;6.80;99.90
1137;DHT22;557;48.466;7.950;2023-02-01T16:33:50;6.80;99.90
1137;DHT22;557;48.466;7.950;2023-02-01T16:36:38;6.80;99.90
1137;DHT22;557;48.466;7.950;2023-02-01T16:39:25;6.90;99.90
1137;DHT22;557;48.466;7.950;2023-02-01T16:42:14;6.90;99.90
1137;DHT22;557;48.466;7.950;2023-02-01T16:45:02;6.80;99.90
1137;DHT22;557;48.466;7.950;2023-02-01T16:47:52;6.90;99.90
1137;DHT22;557;48.466;7.950;2023-02-01T16:50:42;6.90;99.90
1137;DHT22;557;48.466;7.950;2023-02-01T16:53:31;6.90;99.90
1137;DHT22;557;48.466;7.950;2023-02-01T16:56:20;7.00;43.90
1137;DHT22;557;48.466;7.950;2023-02-01T16:59:08;7.00;50.10
1137;DHT22;557;48.466;7.950;2023-02-01T17:01:55;7.00;87.10
1137;DHT22;557;48.466;7.950;2023-02-01T17:04:43;7.00;5.80
1137;DHT22;557;48.466;7.950;2023-02-01T17:07:31;7.00;1.00
1137;DHT22;557;48.466;7.950;2023-02-01T17:10:24;7.10;1.00
1137;DHT22;557;48.466;7.950;2023-02-01T17:13:13;7.00;6.10
1137;DHT22;557;48.466;7.950;2023-02-01T17:16:04;7.00;29.80
1137;DHT22;557;48.466;7.950;2023-02-01T17:18:55;7.00;6.00
1137;DHT22;557;48.466;7.950;2023-02-01T17:21:44;7.00;8.80
1137;DHT22;557;48.466;7.950;2023-02-01T17:24:33;6.90;91.20
1137;DHT22;557;48.466;7.950;2023-02-01T17:27:21;6.90;99.90
1137;DHT22;557;48.466;7.950;2023-02-01T17:30:09;6.90;99.90
1137;DHT22;557;48.466;7.950;2023-02-01T17:32:57;6.90;99.90
1137;DHT22;557;48.466;7.950;2023-02-01T17:35:45;6.90;99.90
1137;DHT22;557;48.466;7.950;2023-02-01T17:38:33;6.90;99.90
1137;DHT22;557;48.466;7.950;2023-02-01T17:41:22;6.90;1.00
1137;DHT22;557;48.466;7.950;2023-02-01T17:44:09;6.80;1.00
1137;DHT22;557;48.466;7.950;2023-02-01T17:47:03;6.80;1.00
1137;DHT22;557;48.466;7.950;2023-02-01T17:49:50;6.80;99.90
1137;DHT22;557;48.466;7.950;2023-02-01T17:52:41;6.70;1.00
1137;DHT22;557;48.466;7.950;2023-02-01T17:55:29;6.60;4.00
1137;DHT22;557;48.466;7.950;2023-02-01T17:58:18;6.60;99.90
1137;DHT22;557;48.466;7.950;2023-02-01T18:01:08;6.50;99.90
1137;DHT22;557;48.466;7.950;2023-02-01T18:03:56;6.50;1.00
1137;DHT22;557;48.466;7.950;2023-02-01T18:06:43;6.40;1.00
1137;DHT22;557;48.466;7.950;2023-02-01T18:09:30;6.40;99.90
1137;DHT22;557;48.466;7.950;2023-02-01T18:12:20;6.40;1.00
1137;DHT22;557;48.466;7.950;2023-02-01T18:15:20;6.40;99.90
1137;DHT22;557;48.466;7.950;2023-02-01T18:18:07;6.40;99.90
1137;DHT22;557;48.466;7.950;2023-02-01T18:20:54;6.30;1.00
1137;DHT22;557;48.466;7.950;2023-02-01T18:23:42;6.30;9.10
1137;DHT22;557;48.466;7.950;2023-02-01T18:26:29;6.30;1.00
1137;DHT22;557;48.466;7.950;2023-02-01T18:29:16;6.20;99.90
1137;DHT22;557;48.466;7.950;2023-02-01T18:32:05;6.30;1.00
1137;DHT22;557;48.466;7.950;2023-02-01T18:34:52;6.20;1.00
1137;DHT22;557;48.466;7.950;2023-02-01T18:37:40;6.20;1.00
1137;DHT22;557;48.466;7.950;2023-02-01T18:40:31;6.20;1.00
1137;DHT22;557;48.466;7.950;2023-02-01T18:43:20;6.20;99.90
1137;DHT22;557;48.466;7.950;2023-02-01T18:46:08;6.30;99.90
1137;DHT22;557;48.466;7.950;2023-02-01T18:48:57;6.30;1.00
1137;DHT22;557;48.466;7.950;2023-02-01T18:51:45;6.40;99.90
1137;DHT22;557;48.466;7.950;2023-02-01T18:54:33;6.50;1.00
1137;DHT22;557;48.466;7.950;2023-02-01T18:57:20;6.50;99.90
1137;DHT22;557;48.466;7.950;2023-02-01T19:00:10;6.50;99.90
1137;DHT22;557;48.466;7.950;2023-02-01T19:02:58;6.70;1.00
1137;DHT22;557;48.466;7.950;2023-02-01T19:05:47;6.70;99.90
1137;DHT22;557;48.466;7.950;2023-02-01T19:08:35;6.60;99.90
1137;DHT22;557;48.466;7.950;2023-02-01T19:11:23;6.50;1.00
1137;DHT22;557;48.466;7.950;2023-02-01T19:14:10;6.40;1.00
1137;DHT22;557;48.466;7.950;2023-02-01T19:16:57;6.40;99.90
1137;DHT22;557;48.466;7.950;2023-02-01T19:19:45;6.40;99.90
1137;DHT22;557;48.466;7.950;2023-02-01T19:22:34;6.50;18.80
1137;DHT22;557;48.466;7.950;2023-02-01T19:25:23;6.50;53.20
1137;DHT22;557;48.466;7.950;2023-02-01T19:28:11;6.40;18.70
1137;DHT22;557;48.466;7.950;2023-02-01T19:31:02;6.40;1.00
1137;DHT22;557;48.466;7.950;2023-02-01T19:33:50;6.40;1.70
1137;DHT22;557;48.466;7.950;2023-02-01T19:36:37;6.40;5.40